Panthera — CFK5497 — position and weather

sailwx.info

Track history (hours):
 
Tides and Currents Weather Stations Pressure Air Temp Water Temp Dewpoint Dewpoint Depression Visibility Wind Speed Wind Dir Waves Ship Positions

Panthera

Last reported at 2017-Sep-14 12:48 UTC. Time now 2017-Nov-21 10:23 UTC.
Position N 38°10' W 076°17'.
Warning: this ship's position is months out of date.

Length 13 m.

Type: Sailing vessel. MMSI: 316027662.

Date/timePositionNaut miles runAvg speedWind from/ knotsBaromVisibWave heightAir tempDewpointWater temp
2017-Sep-14 12:48N 38°10' W 076°17'2 7.3
2017-Sep-14 12:30N 38°12' W 076°17'47 2.2
2017-Sep-13 15:38N 38°58' W 076°28'20 7.1
2017-Sep-13 12:50N 39°15' W 076°14'3 9.1
2017-Sep-13 12:30N 39°18' W 076°13'5 9.1
2017-Sep-13 12:00N 39°21' W 076°09'4 8.2
2017-Sep-13 11:31N 39°23' W 076°04'0 0.0
2017-Sep-12 22:23N 39°23' W 076°04'3 6.6
2017-Sep-12 22:00N 39°25' W 076°02'4 9.0
2017-Sep-12 21:30N 39°28' W 075°58'4 8.6
2017-Sep-12 21:00N 39°31' W 075°54'4 8.5
2017-Sep-12 20:30N 39°32' W 075°48'4 8.5
2017-Sep-12 20:00N 39°33' W 075°43'4 7.8
2017-Sep-12 19:30N 39°33' W 075°38'4 7.5
2017-Sep-12 19:00N 39°34' W 075°33'5 9.8
2017-Sep-12 18:30N 39°29' W 075°33'5 9.8
2017-Sep-12 18:00N 39°24' W 075°30'5 9.4
2017-Sep-12 17:30N 39°21' W 075°26'5 9.1
2017-Sep-12 17:00N 39°18' W 075°22'4 8.6
2017-Sep-12 16:30N 39°14' W 075°18'4 8.5
2017-Sep-12 15:59N 39°10' W 075°16'4 8.8
2017-Sep-12 15:30N 39°07' W 075°13'4 8.5
2017-Sep-12 15:00N 39°03' W 075°11'6 8.7
2017-Sep-12 14:20N 38°58' W 075°07'5 8.6
2017-Sep-12 13:47N 38°54' W 075°04'3 8.2
2017-Sep-12 13:26N 38°51' W 075°02'4 8.1
2017-Sep-12 13:00N 38°51' W 074°58'4 8.1
2017-Sep-12 12:30N 38°52' W 074°53'25 7.6
2017-Sep-12 09:09N 39°11' W 074°31'2 7.4
2017-Sep-12 08:56N 39°11' W 074°29'4 7.5
2017-Sep-12 08:25N 39°13' W 074°25'7 7.7
2017-Sep-12 07:34N 39°18' W 074°19'8 7.6
2017-Sep-12 06:31N 39°24' W 074°12'0 6.6
2017-Sep-12 06:30N 39°24' W 074°12'4 7.6
2017-Sep-12 05:57N 39°28' W 074°10'3 7.4
2017-Sep-12 05:29N 39°31' W 074°08'4 7.4
2017-Sep-12 05:00N 39°34' W 074°06'4 7.5
2017-Sep-12 04:28N 39°37' W 074°03'4 7.4
2017-Sep-12 03:58N 39°41' W 074°02'4 7.4
2017-Sep-12 03:27N 39°44' W 073°60'3 7.3
2017-Sep-12 03:00N 39°48' W 073°58'41 7.4
2017-Sep-11 21:28N 40°29' W 073°59'4 8.2
2017-Sep-11 20:58N 40°32' W 074°01'4 9.3
2017-Sep-11 20:30N 40°36' W 074°03'4 8.5
2017-Sep-11 20:00N 40°41' W 074°03'4 7.0
2017-Sep-11 19:30N 40°44' W 074°01'4 7.3
2017-Sep-11 19:00N 40°47' W 073°60'4 7.4
2017-Sep-11 18:30N 40°51' W 073°57'  
2017-Sep-07 20:41N 40°56' W 073°55'3 5.4
2017-Sep-07 20:12N 40°53' W 073°56'1 4.7
2017-Sep-07 19:58N 40°52' W 073°56'2 4.8
2017-Sep-07 19:30N 40°50' W 073°58'1 2.7
2017-Sep-07 19:00N 40°49' W 073°58'  
2017-Sep-04 17:06N 40°47' W 073°59'0 0.0
2017-Sep-04 17:00N 40°47' W 073°59'1 1.4
2017-Sep-04 16:29N 40°47' W 073°60'3 5.5
2017-Sep-04 16:00N 40°44' W 074°01'2 4.0
2017-Sep-04 15:30N 40°42' W 073°60'  
Track history (hours):
 
Tides and Currents Weather Stations Pressure Air Temp Water Temp Dewpoint Dewpoint Depression Visibility Wind Speed Wind Dir Waves Ship Positions

Panthera

Last reported at 2017-Sep-14 12:48 UTC. Time now 2017-Nov-21 10:23 UTC.
Position N 38°10' W 076°17'.
Warning: this ship's position is months out of date.

Length 13 m.

Type: Sailing vessel. MMSI: 316027662.

Date/timePositionNaut miles runAvg speedWind from/ knotsBaromVisibWave heightAir tempDewpointWater temp
2017-Sep-14 12:48N 38°10' W 076°17'2 7.3
2017-Sep-14 12:30N 38°12' W 076°17'47 2.2
2017-Sep-13 15:38N 38°58' W 076°28'20 7.1
2017-Sep-13 12:50N 39°15' W 076°14'3 9.1
2017-Sep-13 12:30N 39°18' W 076°13'5 9.1
2017-Sep-13 12:00N 39°21' W 076°09'4 8.2
2017-Sep-13 11:31N 39°23' W 076°04'0 0.0
2017-Sep-12 22:23N 39°23' W 076°04'3 6.6
2017-Sep-12 22:00N 39°25' W 076°02'4 9.0
2017-Sep-12 21:30N 39°28' W 075°58'4 8.6
2017-Sep-12 21:00N 39°31' W 075°54'4 8.5
2017-Sep-12 20:30N 39°32' W 075°48'4 8.5
2017-Sep-12 20:00N 39°33' W 075°43'4 7.8
2017-Sep-12 19:30N 39°33' W 075°38'4 7.5
2017-Sep-12 19:00N 39°34' W 075°33'5 9.8
2017-Sep-12 18:30N 39°29' W 075°33'5 9.8
2017-Sep-12 18:00N 39°24' W 075°30'5 9.4
2017-Sep-12 17:30N 39°21' W 075°26'5 9.1
2017-Sep-12 17:00N 39°18' W 075°22'4 8.6
2017-Sep-12 16:30N 39°14' W 075°18'4 8.5
2017-Sep-12 15:59N 39°10' W 075°16'4 8.8
2017-Sep-12 15:30N 39°07' W 075°13'4 8.5
2017-Sep-12 15:00N 39°03' W 075°11'6 8.7
2017-Sep-12 14:20N 38°58' W 075°07'5 8.6
2017-Sep-12 13:47N 38°54' W 075°04'3 8.2
2017-Sep-12 13:26N 38°51' W 075°02'4 8.1
2017-Sep-12 13:00N 38°51' W 074°58'4 8.1
2017-Sep-12 12:30N 38°52' W 074°53'25 7.6
2017-Sep-12 09:09N 39°11' W 074°31'2 7.4
2017-Sep-12 08:56N 39°11' W 074°29'4 7.5
2017-Sep-12 08:25N 39°13' W 074°25'7 7.7
2017-Sep-12 07:34N 39°18' W 074°19'8 7.6
2017-Sep-12 06:31N 39°24' W 074°12'0 6.6
2017-Sep-12 06:30N 39°24' W 074°12'4 7.6
2017-Sep-12 05:57N 39°28' W 074°10'3 7.4
2017-Sep-12 05:29N 39°31' W 074°08'4 7.4
2017-Sep-12 05:00N 39°34' W 074°06'4 7.5
2017-Sep-12 04:28N 39°37' W 074°03'4 7.4
2017-Sep-12 03:58N 39°41' W 074°02'4 7.4
2017-Sep-12 03:27N 39°44' W 073°60'3 7.3
2017-Sep-12 03:00N 39°48' W 073°58'41 7.4
2017-Sep-11 21:28N 40°29' W 073°59'4 8.2
2017-Sep-11 20:58N 40°32' W 074°01'4 9.3
2017-Sep-11 20:30N 40°36' W 074°03'4 8.5
2017-Sep-11 20:00N 40°41' W 074°03'4 7.0
2017-Sep-11 19:30N 40°44' W 074°01'4 7.3
2017-Sep-11 19:00N 40°47' W 073°60'4 7.4
2017-Sep-11 18:30N 40°51' W 073°57'  
2017-Sep-07 20:41N 40°56' W 073°55'3 5.4
2017-Sep-07 20:12N 40°53' W 073°56'1 4.7
2017-Sep-07 19:58N 40°52' W 073°56'2 4.8
2017-Sep-07 19:30N 40°50' W 073°58'1 2.7
2017-Sep-07 19:00N 40°49' W 073°58'  
2017-Sep-04 17:06N 40°47' W 073°59'0 0.0
2017-Sep-04 17:00N 40°47' W 073°59'1 1.4
2017-Sep-04 16:29N 40°47' W 073°60'3 5.5
2017-Sep-04 16:00N 40°44' W 074°01'2 4.0
2017-Sep-04 15:30N 40°42' W 073°60'  

Dump ship's entire track history